Time;durP1;ratioP1;P1;durP2;ratioP2;P2;SDS_P1;SDS_P2;PMS_P1;PMS_P2;Temp;Humidity;BMP_temperature;BMP_pressure;BME280_temperature;BME280_humidity;BME280_pressure;Samples;Min_cycle;Max_cycle;Signal;HPM_P1;HPM_P2
2023/06/02 00:01:40;;;;;;;;;;;;;;;29.89;34.90;96029.31;4963399;28;19954;-49
2023/06/02 00:04:08;;;;;;;;;;;;;;;28.84;36.99;96028.13;4961909;28;19968;-46
2023/06/02 00:06:39;;;;;;;;;;;;;;;28.27;37.73;96038.03;4962665;28;19969;-52
2023/06/02 00:09:07;;;;;;;;;;;;;;;29.48;36.53;96026.69;4955252;28;19965;-48
2023/06/02 00:11:36;;;;;;;;;;;;;;;29.50;36.28;96035.41;4962635;28;19961;-50
2023/06/02 00:14:05;;;;;;;;;;;;;;;29.22;36.43;96031.38;4961283;28;19961;-45
2023/06/02 00:16:34;;;;;;;;;;;;;;;28.94;37.20;96035.41;4966598;28;20421;-48
2023/06/02 00:19:02;;;;;;;;;;;;;;;29.60;36.13;96031.88;4964245;28;19961;-49
2023/06/02 00:21:30;;;;;;;;;;;;;;;28.67;37.22;96028.38;4962353;28;19954;-49
2023/06/02 00:24:00;;;;;;;;;;;;;;;29.54;35.96;96026.41;4955758;28;19965;-49
2023/06/02 00:26:28;;;;;;;;;;;;;;;29.54;36.01;96026.41;4960721;28;19965;-46
2023/06/02 00:28:56;;;;;;;;;;;;;;;28.36;37.69;96032.91;4964844;28;20586;-46
2023/06/02 00:31:24;;;;;;;;;;;;;;;29.67;35.64;96027.78;4956563;28;19953;-46
2023/06/02 00:33:52;;;;;;;;;;;;;;;29.37;35.89;96028.63;4960398;28;20523;-45
2023/06/02 00:36:20;;;;;;;;;;;;;;;29.77;35.28;96024.22;4964266;28;19962;-47
2023/06/02 00:38:48;;;;;;;;;;;;;;;29.97;34.84;96023.28;4960117;28;19962;-48
2023/06/02 00:41:18;;;;;;;;;;;;;;;29.58;35.03;96018.53;4964334;28;20410;-45
2023/06/02 00:43:46;;;;;;;;;;;;;;;29.20;36.14;96028.13;4961910;28;19968;-46
2023/06/02 00:46:14;;;;;;;;;;;;;;;29.36;35.75;96023.47;4965177;28;19969;-47
2023/06/02 00:48:42;;;;;;;;;;;;;;;29.49;35.72;96020.16;4961180;28;19958;-47
2023/06/02 00:51:10;;;;;;;;;;;;;;;29.59;35.47;96022.88;4962205;28;19949;-47
2023/06/02 00:53:38;;;;;;;;;;;;;;;29.78;35.41;96023.13;4971324;28;19961;-51
2023/06/02 00:56:06;;;;;;;;;;;;;;;29.25;35.76;96025.38;4962422;28;19959;-45
2023/06/02 00:58:37;;;;;;;;;;;;;;;28.95;36.83;96026.22;4961109;28;19965;-42
2023/06/02 01:01:08;;;;;;;;;;;;;;;29.15;36.54;96023.50;4966146;28;19973;-49
2023/06/02 01:03:37;;;;;;;;;;;;;;;29.79;35.47;96019.28;4964593;28;19969;-48
2023/06/02 01:06:05;;;;;;;;;;;;;;;29.48;35.67;96019.34;4963831;28;19966;-45
2023/06/02 01:08:33;;;;;;;;;;;;;;;29.07;36.75;96016.72;4958274;28;19984;-52
2023/06/02 01:11:01;;;;;;;;;;;;;;;29.89;34.90;96019.25;4969510;28;19969;-46
2023/06/02 01:13:29;;;;;;;;;;;;;;;29.97;35.05;96013.25;4957612;28;19969;-53
2023/06/02 01:15:58;;;;;;;;;;;;;;;28.73;36.32;96024.56;4962087;28;19965;-46
2023/06/02 01:18:29;;;;;;;;;;;;;;;28.68;36.17;96021.03;4965702;28;19969;-54
2023/06/02 01:20:57;;;;;;;;;;;;;;;28.99;36.03;96019.97;4963900;28;19957;-50
2023/06/02 01:23:29;;;;;;;;;;;;;;;28.56;36.32;96015.88;4963084;28;19965;-51
2023/06/02 01:25:58;;;;;;;;;;;;;;;28.40;36.86;96015.03;4961118;28;20402;-51
2023/06/02 01:28:27;;;;;;;;;;;;;;;28.68;36.65;96012.91;4960203;28;19974;-43
2023/06/02 01:30:57;;;;;;;;;;;;;;;28.62;36.80;96021.03;4957987;28;19964;-51
2023/06/02 01:33:27;;;;;;;;;;;;;;;28.14;37.57;96016.84;4963656;28;19965;-52
2023/06/02 01:35:58;;;;;;;;;;;;;;;27.43;38.80;96020.06;4964670;28;19987;-44
2023/06/02 01:38:27;;;;;;;;;;;;;;;28.66;36.88;96015.88;4959836;28;19957;-49
2023/06/02 01:40:55;;;;;;;;;;;;;;;29.34;35.71;96012.88;4965018;28;19965;-53
2023/06/02 01:43:25;;;;;;;;;;;;;;;29.14;36.11;96024.56;4961509;28;19957;-49
2023/06/02 01:45:53;;;;;;;;;;;;;;;28.51;37.21;96018.59;4955969;28;19957;-46
2023/06/02 01:48:21;;;;;;;;;;;;;;;29.02;36.67;96011.28;4959290;28;20369;-48
2023/06/02 01:50:49;;;;;;;;;;;;;;;29.11;36.11;96016.97;4962248;28;19972;-47
2023/06/02 01:53:19;;;;;;;;;;;;;;;29.23;36.25;96012.09;4951802;28;19961;-45
2023/06/02 01:55:47;;;;;;;;;;;;;;;28.54;36.51;96010.72;4967226;28;19961;-45
2023/06/02 01:58:15;;;;;;;;;;;;;;;28.55;36.80;96017.75;4964336;28;19961;-46
2023/06/02 02:00:44;;;;;;;;;;;;;;;27.76;38.27;96010.75;4965936;28;19961;-47
2023/06/02 02:03:13;;;;;;;;;;;;;;;28.58;37.36;96011.81;4965246;28;19965;-46
2023/06/02 02:05:41;;;;;;;;;;;;;;;28.85;36.84;96013.44;4967865;28;19960;-48
2023/06/02 02:08:11;;;;;;;;;;;;;;;28.59;36.79;96012.63;4955420;28;19969;-50
2023/06/02 02:10:39;;;;;;;;;;;;;;;27.46;38.72;96008.69;4967516;28;19960;-48
2023/06/02 02:13:07;;;;;;;;;;;;;;;27.64;38.45;96012.84;4962922;28;19954;-49
2023/06/02 02:15:36;;;;;;;;;;;;;;;27.04;39.54;96016.78;4963978;28;20282;-48
2023/06/02 02:18:05;;;;;;;;;;;;;;;27.83;38.32;96007.78;4965730;28;19958;-50
2023/06/02 02:20:33;;;;;;;;;;;;;;;28.44;37.03;96009.91;4961326;28;20513;-51
2023/06/02 02:23:02;;;;;;;;;;;;;;;28.14;37.25;96009.50;4967163;28;19962;-46
2023/06/02 02:25:30;;;;;;;;;;;;;;;28.62;36.96;96007.47;4957448;28;20374;-46
2023/06/02 02:27:58;;;;;;;;;;;;;;;28.58;36.78;96008.28;4959676;28;20790;-45
2023/06/02 02:30:26;;;;;;;;;;;;;;;27.74;38.01;96009.38;4968818;28;19972;-45
2023/06/02 02:32:57;;;;;;;;;;;;;;;27.83;38.34;96007.78;4965920;28;19965;-48
2023/06/02 02:35:26;;;;;;;;;;;;;;;28.00;38.41;96004.88;4959009;28;20413;-53
2023/06/02 02:37:55;;;;;;;;;;;;;;;28.09;37.94;96003.28;4969903;28;19961;-46
2023/06/02 02:40:23;;;;;;;;;;;;;;;28.22;37.85;95999.22;4961286;28;20420;-50
2023/06/02 02:42:51;;;;;;;;;;;;;;;27.43;38.87;96006.50;4961533;28;19976;-46
2023/06/02 02:45:20;;;;;;;;;;;;;;;27.73;38.55;96003.09;4959788;28;19972;-45
2023/06/02 02:47:48;;;;;;;;;;;;;;;28.68;36.93;96002.84;4961433;28;20439;-48
2023/06/02 02:50:16;;;;;;;;;;;;;;;28.07;37.95;96003.53;4956385;28;19976;-48
2023/06/02 02:52:46;;;;;;;;;;;;;;;28.21;37.99;95998.41;4962548;28;19962;-45
2023/06/02 02:55:14;;;;;;;;;;;;;;;27.31;38.95;96008.59;4963440;28;20363;-50
2023/06/02 02:57:43;;;;;;;;;;;;;;;27.69;38.50;96000.13;4964422;28;20390;-46
2023/06/02 03:00:12;;;;;;;;;;;;;;;27.55;38.91;96003.59;4964220;28;19957;-47
2023/06/02 03:02:41;;;;;;;;;;;;;;;27.15;39.37;96010.38;4957148;28;19969;-54
2023/06/02 03:05:13;;;;;;;;;;;;;;;27.67;38.80;96007.72;4959570;28;20619;-49
2023/06/02 03:07:44;;;;;;;;;;;;;;;27.87;38.24;96008.88;4967751;28;19968;-49
2023/06/02 03:10:13;;;;;;;;;;;;;;;27.74;38.11;96003.94;4959091;28;19969;-46
2023/06/02 03:12:41;;;;;;;;;;;;;;;27.84;37.73;96006.72;4959146;28;19969;-45
2023/06/02 03:15:10;;;;;;;;;;;;;;;27.22;38.65;96008.28;4961554;28;19957;-47
2023/06/02 03:17:38;;;;;;;;;;;;;;;27.50;38.61;96003.56;4965104;28;20324;-49
2023/06/02 03:20:08;;;;;;;;;;;;;;;27.33;38.57;96015.38;4955997;28;19972;-47
2023/06/02 03:22:36;;;;;;;;;;;;;;;28.10;37.41;96016.56;4963004;28;19965;-47
2023/06/02 03:25:05;;;;;;;;;;;;;;;27.98;37.53;96016.00;4952464;28;19962;-46
2023/06/02 03:27:35;;;;;;;;;;;;;;;27.95;38.15;96018.44;4962482;28;19933;-51
2023/06/02 03:30:03;;;;;;;;;;;;;;;28.58;36.95;96011.00;4969786;28;19946;-48
2023/06/02 03:32:31;;;;;;;;;;;;;;;28.74;36.61;96014.53;4966419;28;19965;-52
2023/06/02 03:34:59;;;;;;;;;;;;;;;28.68;36.46;96011.00;4968073;28;19965;-55
2023/06/02 03:37:27;;;;;;;;;;;;;;;28.24;37.15;96016.06;4959837;28;19953;-51
2023/06/02 03:39:55;;;;;;;;;;;;;;;28.67;36.66;96014.81;4970449;28;19972;-47
2023/06/02 03:42:23;;;;;;;;;;;;;;;28.38;36.98;96018.00;4963007;28;19972;-48
2023/06/02 03:44:53;;;;;;;;;;;;;;;28.78;36.24;96016.44;4966606;28;20517;-49
2023/06/02 03:47:21;;;;;;;;;;;;;;;27.83;38.40;96021.34;4966755;28;19954;-47
2023/06/02 03:49:49;;;;;;;;;;;;;;;28.80;36.73;96021.56;4965344;28;19957;-48
2023/06/02 03:52:17;;;;;;;;;;;;;;;28.57;36.64;96026.47;4964261;28;19975;-47
2023/06/02 03:54:47;;;;;;;;;;;;;;;29.20;35.69;96022.69;4966163;28;19972;-45
2023/06/02 03:57:15;;;;;;;;;;;;;;;29.02;35.92;96032.22;4959059;28;19961;-46
2023/06/02 03:59:43;;;;;;;;;;;;;;;29.60;34.88;96037.31;4961928;28;19996;-52
2023/06/02 04:02:12;;;;;;;;;;;;;;;30.67;33.91;96042.25;4966499;28;19958;-47
2023/06/02 04:04:41;;;;;;;;;;;;;;;30.67;33.21;96039.53;4965362;28;19972;-51
2023/06/02 04:07:09;;;;;;;;;;;;;;;31.30;32.78;96036.03;4964430;28;19980;-50
2023/06/02 04:09:37;;;;;;;;;;;;;;;31.89;31.52;96024.81;4966587;28;19972;-53
2023/06/02 04:12:06;;;;;;;;;;;;;;;32.62;30.85;96030.97;4962637;28;19965;-52
2023/06/02 04:14:35;;;;;;;;;;;;;;;32.32;31.17;96029.47;4968760;28;19976;-47
2023/06/02 04:17:04;;;;;;;;;;;;;;;32.78;30.25;96026.91;4956064;28;20363;-51
2023/06/02 04:19:34;;;;;;;;;;;;;;;32.77;30.41;96038.13;4961077;28;19972;-46
2023/06/02 04:22:02;;;;;;;;;;;;;;;33.89;29.23;96033.44;4964233;28;20369;-48
2023/06/02 04:24:30;;;;;;;;;;;;;;;34.47;28.30;96031.97;4964570;28;19965;-50
2023/06/02 04:26:58;;;;;;;;;;;;;;;34.38;28.57;96034.66;4962900;28;19972;-47
2023/06/02 04:29:28;;;;;;;;;;;;;;;34.38;28.25;96042.88;4954667;28;19969;-48
2023/06/02 04:31:56;;;;;;;;;;;;;;;34.41;28.40;96036.78;4962848;28;19972;-51
2023/06/02 04:34:24;;;;;;;;;;;;;;;34.96;27.99;96046.75;4970077;28;19953;-47
2023/06/02 04:36:54;;;;;;;;;;;;;;;35.28;27.43;96036.69;4969540;28;19965;-49
2023/06/02 04:39:22;;;;;;;;;;;;;;;35.05;27.84;96044.13;4967626;28;19992;-47
2023/06/02 04:41:50;;;;;;;;;;;;;;;34.58;28.27;96044.34;4959414;28;19973;-47
2023/06/02 04:44:18;;;;;;;;;;;;;;;34.35;28.28;96043.47;4964364;28;20464;-52
2023/06/02 04:46:46;;;;;;;;;;;;;;;34.04;29.05;96050.72;4964545;28;19972;-46
2023/06/02 04:49:14;;;;;;;;;;;;;;;33.56;29.42;96054.63;4961197;28;20445;-47
2023/06/02 04:51:42;;;;;;;;;;;;;;;34.26;29.31;96054.34;4963128;28;19965;-47
2023/06/02 04:54:14;;;;;;;;;;;;;;;34.93;28.44;96047.41;4959874;28;20435;-54
2023/06/02 04:56:42;;;;;;;;;;;;;;;35.13;27.95;96054.31;4959893;28;19953;-48
2023/06/02 04:59:11;;;;;;;;;;;;;;;34.78;28.52;96054.03;4965898;28;20393;-49
2023/06/02 05:01:39;;;;;;;;;;;;;;;34.51;28.55;96049.44;4958647;28;19957;-48
2023/06/02 05:04:08;;;;;;;;;;;;;;;34.92;29.10;96045.75;4958531;28;19968;-47
2023/06/02 05:06:36;;;;;;;;;;;;;;;34.61;29.55;96045.66;4960142;28;19962;-49
2023/06/02 05:09:04;;;;;;;;;;;;;;;34.62;29.47;96050.03;4963751;28;19969;-51
2023/06/02 05:11:33;;;;;;;;;;;;;;;35.45;27.87;96052.44;4961412;28;19969;-49
2023/06/02 05:14:02;;;;;;;;;;;;;;;35.69;28.60;96055.66;4966683;28;19977;-55
2023/06/02 05:16:31;;;;;;;;;;;;;;;34.63;28.60;96057.13;4967998;28;19964;-52
2023/06/02 05:18:59;;;;;;;;;;;;;;;34.97;28.04;96049.19;4971775;28;19988;-54
2023/06/02 05:21:28;;;;;;;;;;;;;;;35.51;27.81;96053.91;4965503;28;20410;-51
2023/06/02 05:23:58;;;;;;;;;;;;;;;35.54;27.79;96048.63;4960825;28;22278;-46
2023/06/02 05:26:26;;;;;;;;;;;;;;;34.73;28.39;96054.16;4966909;28;19980;-49
2023/06/02 05:28:57;;;;;;;;;;;;;;;34.12;28.83;96045.31;4966680;28;20410;-46
2023/06/02 05:31:25;;;;;;;;;;;;;;;33.15;29.80;96052.56;4958138;28;19957;-48
2023/06/02 05:33:53;;;;;;;;;;;;;;;32.98;29.85;96055.03;4960697;28;20410;-47
2023/06/02 05:36:21;;;;;;;;;;;;;;;34.76;29.67;96050.81;4964480;28;19964;-45
2023/06/02 05:38:49;;;;;;;;;;;;;;;33.85;29.98;96050.78;4954653;28;20353;-47
2023/06/02 05:41:17;;;;;;;;;;;;;;;34.87;28.91;96065.06;4952065;28;19966;-47
2023/06/02 05:43:45;;;;;;;;;;;;;;;33.58;30.95;96076.19;4955074;28;19968;-45
2023/06/02 05:46:15;;;;;;;;;;;;;;;34.68;29.38;96081.66;4960855;28;19961;-59
2023/06/02 05:48:43;;;;;;;;;;;;;;;35.08;29.08;96073.66;4953184;28;19972;-49
2023/06/02 05:51:11;;;;;;;;;;;;;;;33.13;29.83;96073.91;4951819;28;19965;-50
2023/06/02 05:53:39;;;;;;;;;;;;;;;34.41;29.10;96068.81;4958092;28;19969;-51
2023/06/02 05:56:07;;;;;;;;;;;;;;;35.13;27.30;96079.00;4957878;28;20411;-47
2023/06/02 05:58:37;;;;;;;;;;;;;;;35.02;27.52;96083.91;4961334;28;19973;-49
2023/06/02 06:01:06;;;;;;;;;;;;;;;34.96;27.68;96080.47;4959987;28;19962;-47
2023/06/02 06:03:35;;;;;;;;;;;;;;;34.40;27.46;96089.09;4956667;28;19965;-46
2023/06/02 06:06:04;;;;;;;;;;;;;;;33.40;28.54;96086.84;4956511;28;19965;-48
2023/06/02 06:08:33;;;;;;;;;;;;;;;32.86;28.59;96085.50;4958178;28;20105;-49
2023/06/02 06:11:01;;;;;;;;;;;;;;;33.27;28.41;96088.41;4962598;28;19965;-46
2023/06/02 06:13:29;;;;;;;;;;;;;;;34.02;27.87;96073.72;4952770;28;19961;-49
2023/06/02 06:15:57;;;;;;;;;;;;;;;33.62;27.87;96078.03;4955253;28;20402;-49
2023/06/02 06:18:25;;;;;;;;;;;;;;;33.60;28.05;96076.69;4962815;28;19950;-45
2023/06/02 06:20:55;;;;;;;;;;;;;;;34.14;27.72;96073.22;4960212;28;19972;-54
2023/06/02 06:23:24;;;;;;;;;;;;;;;33.05;28.99;96086.34;4965584;28;20702;-46
2023/06/02 06:25:52;;;;;;;;;;;;;;;32.99;28.75;96081.25;4954799;28;19973;-51
2023/06/02 06:28:21;;;;;;;;;;;;;;;33.15;28.56;96081.81;4959405;28;19961;-47
2023/06/02 06:30:49;;;;;;;;;;;;;;;33.38;28.72;96083.63;4955812;28;19966;-50
2023/06/02 06:33:17;;;;;;;;;;;;;;;33.78;28.60;96082.06;4965290;28;20414;-47
2023/06/02 06:35:45;;;;;;;;;;;;;;;33.67;29.17;96086.13;4957064;28;19962;-51
2023/06/02 06:38:15;;;;;;;;;;;;;;;33.43;28.53;96090.91;4953573;28;20437;-51
2023/06/02 06:40:43;;;;;;;;;;;;;;;34.31;27.99;96089.03;4957681;28;19961;-51
2023/06/02 06:43:15;;;;;;;;;;;;;;;34.47;28.32;96093.03;4958671;28;19973;-43
2023/06/02 06:45:49;;;;;;;;;;;;;;;34.16;27.95;96092.88;4962469;28;20488;-52
2023/06/02 06:48:17;;;;;;;;;;;;;;;34.93;27.40;96093.97;4958909;28;19970;-49
2023/06/02 06:50:45;;;;;;;;;;;;;;;34.05;28.80;96104.34;4959944;28;19962;-51
2023/06/02 06:53:15;;;;;;;;;;;;;;;34.80;28.46;96095.66;4968393;28;20395;-51
2023/06/02 06:55:43;;;;;;;;;;;;;;;34.71;28.21;96095.56;4953815;28;19958;-50
2023/06/02 06:58:11;;;;;;;;;;;;;;;34.64;27.32;96099.84;4956424;28;19982;-46
2023/06/02 07:00:39;;;;;;;;;;;;;;;34.28;28.44;96099.78;4954325;28;20186;-50
2023/06/02 07:03:07;;;;;;;;;;;;;;;35.40;26.81;96100.78;4963311;28;19969;-46
2023/06/02 07:05:36;;;;;;;;;;;;;;;35.30;27.55;96098.31;4960747;28;19961;-50
2023/06/02 07:08:04;;;;;;;;;;;;;;;35.14;28.07;96106.09;4964306;28;20008;-49
2023/06/02 07:10:34;;;;;;;;;;;;;;;35.58;27.44;96098.19;4963735;28;19977;-48
2023/06/02 07:13:02;;;;;;;;;;;;;;;35.47;27.95;96105.84;4965260;28;20377;-53
2023/06/02 07:15:30;;;;;;;;;;;;;;;35.53;27.53;96103.81;4958161;28;19950;-51
2023/06/02 07:17:58;;;;;;;;;;;;;;;35.05;29.03;96105.22;4956578;28;19969;-49
2023/06/02 07:20:26;;;;;;;;;;;;;;;34.81;28.25;96101.94;4959256;28;20427;-51
2023/06/02 07:22:55;;;;;;;;;;;;;;;33.75;28.87;96109.22;4958217;28;20370;-52
2023/06/02 07:25:23;;;;;;;;;;;;;;;34.34;28.42;96109.47;4965191;28;19980;-47
2023/06/02 07:27:53;;;;;;;;;;;;;;;34.83;27.93;96110.66;4959009;28;19950;-47
2023/06/02 07:30:21;;;;;;;;;;;;;;;35.38;27.66;96108.53;4961151;28;19973;-47
2023/06/02 07:32:49;;;;;;;;;;;;;;;34.94;28.51;96110.09;4963896;28;19973;-51
2023/06/02 07:35:18;;;;;;;;;;;;;;;35.43;26.88;96104.84;4971792;28;19965;-48
2023/06/02 07:37:46;;;;;;;;;;;;;;;35.35;26.99;96108.34;4958379;28;19972;-48
2023/06/02 07:40:14;;;;;;;;;;;;;;;34.90;27.37;96111.84;4971222;28;19965;-49
2023/06/02 07:42:42;;;;;;;;;;;;;;;34.73;28.08;96107.03;4962870;28;19973;-50
2023/06/02 07:45:11;;;;;;;;;;;;;;;35.47;27.04;96108.56;4965411;28;19965;-46
2023/06/02 07:47:39;;;;;;;;;;;;;;;35.17;27.66;96105.50;4957501;28;19961;-49
2023/06/02 07:50:08;;;;;;;;;;;;;;;34.88;28.82;96116.00;4960034;28;19954;-47
2023/06/02 07:52:36;;;;;;;;;;;;;;;34.46;29.23;96107.84;4962030;28;20339;-47
2023/06/02 07:55:04;;;;;;;;;;;;;;;34.76;28.67;96100.13;4958112;28;19962;-49
2023/06/02 07:57:32;;;;;;;;;;;;;;;36.21;27.58;96105.28;4956667;28;19962;-48
2023/06/02 08:00:09;;;;;;;;;;;;;;;35.58;28.18;96106.41;4960679;28;19966;-48
2023/06/02 08:02:40;;;;;;;;;;;;;;;36.19;27.63;96114.97;4963216;28;20402;-50
2023/06/02 08:05:08;;;;;;;;;;;;;;;35.18;27.18;96103.56;4961435;28;19965;-51
2023/06/02 08:07:37;;;;;;;;;;;;;;;35.56;27.29;96101.25;4955410;28;19949;-50
2023/06/02 08:10:05;;;;;;;;;;;;;;;35.68;26.92;96103.41;4959917;28;19977;-46
2023/06/02 08:12:34;;;;;;;;;;;;;;;36.31;25.91;96099.50;4957153;28;19964;-50
2023/06/02 08:15:02;;;;;;;;;;;;;;;35.09;28.22;96113.63;4964400;28;20003;-49
2023/06/02 08:17:30;;;;;;;;;;;;;;;34.92;28.81;96114.25;4960176;28;20384;-54
2023/06/02 08:20:01;;;;;;;;;;;;;;;35.02;29.13;96105.03;4965620;28;19973;-54
2023/06/02 08:22:30;;;;;;;;;;;;;;;34.70;29.37;96106.81;4956444;28;19961;-51
2023/06/02 08:24:58;;;;;;;;;;;;;;;35.38;28.04;96105.00;4956514;28;19962;-48
2023/06/02 08:27:26;;;;;;;;;;;;;;;35.42;27.70;96100.50;4958481;28;19957;-43
2023/06/02 08:29:56;;;;;;;;;;;;;;;34.69;28.87;96103.28;4959741;28;19984;-49
2023/06/02 08:32:25;;;;;;;;;;;;;;;35.45;28.05;96108.09;4958764;28;19961;-50
2023/06/02 08:35:01;;;;;;;;;;;;;;;35.93;29.10;96101.09;4961300;28;20014;-52
2023/06/02 08:37:32;;;;;;;;;;;;;;;35.42;28.40;96106.78;4958960;28;19965;-47
2023/06/02 08:40:00;;;;;;;;;;;;;;;36.63;26.88;96102.19;4957989;28;20374;-50
2023/06/02 08:42:28;;;;;;;;;;;;;;;36.19;28.34;96109.47;4966995;28;19964;-45
2023/06/02 08:44:56;;;;;;;;;;;;;;;36.75;28.30;96102.34;4961153;28;19962;-45
2023/06/02 08:47:25;;;;;;;;;;;;;;;36.87;26.69;96104.47;4963584;28;19965;-52
2023/06/02 08:49:53;;;;;;;;;;;;;;;35.95;27.44;96105.16;4958855;28;19965;-54
2023/06/02 08:52:22;;;;;;;;;;;;;;;35.58;27.85;96098.19;4961594;28;19961;-53
2023/06/02 08:54:52;;;;;;;;;;;;;;;36.79;26.04;96097.84;4959235;28;19953;-50
2023/06/02 08:57:22;;;;;;;;;;;;;;;36.36;27.68;96093.06;4963843;28;19949;-53
2023/06/02 08:59:51;;;;;;;;;;;;;;;35.61;28.28;96105.78;4960532;28;19968;-45
2023/06/02 09:02:20;;;;;;;;;;;;;;;37.28;25.98;96104.00;4953595;28;19970;-48
2023/06/02 09:04:48;;;;;;;;;;;;;;;37.81;24.97;96102.78;4963914;28;19953;-47
2023/06/02 09:07:16;;;;;;;;;;;;;;;35.75;28.00;96113.94;4958429;28;20418;-46
2023/06/02 09:09:45;;;;;;;;;;;;;;;37.72;26.01;96107.53;4963628;28;19985;-49
2023/06/02 09:12:14;;;;;;;;;;;;;;;36.82;26.74;96108.19;4958033;28;20434;-50
2023/06/02 09:14:42;;;;;;;;;;;;;;;36.77;26.39;96111.09;4957584;28;19965;-51
2023/06/02 09:17:24;;;;;;;;;;;;;;;36.93;26.59;96109.50;4953014;28;19961;-51
2023/06/02 09:19:52;;;;;;;;;;;;;;;36.89;25.82;96124.19;4964942;28;19957;-50
2023/06/02 09:22:20;;;;;;;;;;;;;;;37.02;26.72;96107.56;4958158;28;20534;-52
2023/06/02 09:24:49;;;;;;;;;;;;;;;35.91;27.13;96120.63;4959731;28;19973;-48
2023/06/02 09:27:18;;;;;;;;;;;;;;;37.11;25.80;96115.84;4955346;28;19949;-46
2023/06/02 09:29:47;;;;;;;;;;;;;;;38.10;25.53;96109.53;4964236;28;19968;-46
2023/06/02 09:32:15;;;;;;;;;;;;;;;36.73;26.44;96110.13;4962733;28;20622;-50
2023/06/02 09:34:45;;;;;;;;;;;;;;;37.12;26.53;96106.44;4961523;28;19973;-51
2023/06/02 09:37:14;;;;;;;;;;;;;;;36.97;25.88;96113.25;4966039;28;19957;-50
2023/06/02 09:39:43;;;;;;;;;;;;;;;38.22;25.07;96109.63;4961936;28;19961;-50
2023/06/02 09:42:12;;;;;;;;;;;;;;;38.02;25.70;96113.91;4955927;28;19961;-51
2023/06/02 09:44:41;;;;;;;;;;;;;;;38.45;24.63;96112.94;4957958;28;19961;-49
2023/06/02 09:47:19;;;;;;;;;;;;;;;37.56;25.21;96114.69;4954043;28;19962;-51
2023/06/02 09:49:47;;;;;;;;;;;;;;;38.12;24.07;96112.75;4953760;28;19966;-46
2023/06/02 09:52:16;;;;;;;;;;;;;;;37.32;24.81;96118.72;4958351;28;19988;-47
2023/06/02 09:54:44;;;;;;;;;;;;;;;38.10;23.74;96112.28;4963772;28;19984;-51
2023/06/02 09:57:13;;;;;;;;;;;;;;;37.13;24.27;96110.81;4953400;28;19965;-53
2023/06/02 09:59:42;;;;;;;;;;;;;;;37.81;24.42;96111.03;4960537;28;19953;-51
2023/06/02 10:02:11;;;;;;;;;;;;;;;38.40;24.29;96108.41;4956503;28;19976;-52
2023/06/02 10:04:40;;;;;;;;;;;;;;;36.86;23.76;96109.19;4963295;28;19953;-56
2023/06/02 10:07:13;;;;;;;;;;;;;;;37.15;24.67;96111.28;4955118;28;20397;-46
2023/06/02 10:09:44;;;;;;;;;;;;;;;36.39;24.06;96108.09;4959920;28;19961;-45
2023/06/02 10:12:16;;;;;;;;;;;;;;;37.80;23.13;96108.63;4959298;28;19960;-51
2023/06/02 10:14:52;;;;;;;;;;;;;;;38.43;24.50;96099.47;4957841;28;19961;-49
2023/06/02 10:17:23;;;;;;;;;;;;;;;39.08;23.03;96113.81;4958733;28;19960;-47
2023/06/02 10:19:55;;;;;;;;;;;;;;;38.32;23.65;96113.94;4965903;28;19965;-50
2023/06/02 10:22:26;;;;;;;;;;;;;;;37.58;22.96;96113.22;4960461;28;19968;-52
2023/06/02 10:24:58;;;;;;;;;;;;;;;37.64;23.59;96102.84;4954263;28;19961;-50
2023/06/02 10:27:27;;;;;;;;;;;;;;;37.49;24.87;96098.69;4962065;28;19965;-48
2023/06/02 10:29:56;;;;;;;;;;;;;;;38.16;23.59;96102.69;4956380;28;19954;-48
2023/06/02 10:32:26;;;;;;;;;;;;;;;38.13;24.07;96097.81;4961040;28;19968;-47
2023/06/02 10:34:57;;;;;;;;;;;;;;;38.67;24.45;96087.81;4960526;28;19961;-45
2023/06/02 10:37:26;;;;;;;;;;;;;;;39.53;22.46;96090.22;4957387;28;20610;-51
2023/06/02 10:39:54;;;;;;;;;;;;;;;39.44;23.02;96087.56;4954605;28;20366;-56
2023/06/02 10:42:23;;;;;;;;;;;;;;;37.93;24.44;96091.13;4957136;28;19962;-51
2023/06/02 10:44:52;;;;;;;;;;;;;;;37.85;24.68;96086.41;4960919;28;19965;-47
2023/06/02 10:47:34;;;;;;;;;;;;;;;39.28;22.69;96092.91;4961234;28;19966;-47
2023/06/02 10:50:03;;;;;;;;;;;;;;;40.01;22.49;96097.81;4958395;28;20065;-48
2023/06/02 10:52:51;;;;;;;;;;;;;;;40.55;21.29;96094.06;4956400;28;20473;-52
2023/06/02 10:55:27;;;;;;;;;;;;;;;39.35;21.93;96082.13;4956257;28;20394;-48
2023/06/02 10:57:55;;;;;;;;;;;;;;;38.32;25.76;96087.22;4957430;28;19965;-48
2023/06/02 11:00:45;;;;;;;;;;;;;;;39.45;23.34;96085.63;4959491;28;19968;-48
2023/06/02 11:03:32;;;;;;;;;;;;;;;38.39;22.39;96079.25;4962181;28;19961;-48
2023/06/02 11:06:17;;;;;;;;;;;;;;;39.61;21.59;96078.28;4954635;28;20597;-49
2023/06/02 11:08:47;;;;;;;;;;;;;;;40.22;21.21;96074.84;4963557;28;19961;-48
2023/06/02 11:11:34;;;;;;;;;;;;;;;39.14;22.00;96079.38;4960013;28;19961;-51
2023/06/02 11:14:02;;;;;;;;;;;;;;;39.66;20.93;96080.03;4958075;28;19962;-48
2023/06/02 11:16:30;;;;;;;;;;;;;;;40.83;20.71;96071.22;4958555;28;19957;-46
2023/06/02 11:19:00;;;;;;;;;;;;;;;39.09;21.78;96068.53;4952103;28;19972;-47
2023/06/02 11:21:28;;;;;;;;;;;;;;;40.00;21.31;96070.56;4967775;28;19960;-47
2023/06/02 11:23:56;;;;;;;;;;;;;;;39.20;20.68;96082.75;4963166;28;19972;-49
2023/06/02 11:26:24;;;;;;;;;;;;;;;40.16;20.40;96073.47;4956753;28;19980;-52
2023/06/02 11:28:52;;;;;;;;;;;;;;;39.79;22.51;96067.91;4951145;28;19968;-47
2023/06/02 11:31:22;;;;;;;;;;;;;;;38.62;23.32;96067.94;4958026;28;19973;-48
2023/06/02 11:33:51;;;;;;;;;;;;;;;40.51;19.99;96060.78;4952046;28;19966;-49
2023/06/02 11:36:27;;;;;;;;;;;;;;;40.61;20.15;96059.53;4955580;28;19966;-48
2023/06/02 11:39:01;;;;;;;;;;;;;;;40.42;20.40;96060.09;4954944;28;20406;-46
2023/06/02 11:41:29;;;;;;;;;;;;;;;38.90;21.57;96071.78;4960910;28;19969;-50
2023/06/02 11:44:03;;;;;;;;;;;;;;;39.04;21.31;96065.19;4957847;28;20441;-48
2023/06/02 11:46:31;;;;;;;;;;;;;;;40.10;21.12;96070.91;4959077;28;19960;-45
2023/06/02 11:49:00;;;;;;;;;;;;;;;40.46;19.58;96054.69;4954472;28;19958;-46
2023/06/02 11:51:30;;;;;;;;;;;;;;;40.16;20.37;96054.13;4959161;28;19984;-48
2023/06/02 11:53:58;;;;;;;;;;;;;;;39.76;20.42;96061.09;4961576;28;19973;-48
2023/06/02 11:56:28;;;;;;;;;;;;;;;42.03;18.80;96053.59;4957789;28;19957;-50
2023/06/02 11:58:56;;;;;;;;;;;;;;;40.10;20.87;96065.38;4966352;28;19950;-46
2023/06/02 12:01:25;;;;;;;;;;;;;;;40.86;20.68;96046.44;4964624;28;19968;-46
2023/06/02 12:03:59;;;;;;;;;;;;;;;41.00;19.90;96046.03;4955247;28;20425;-52
2023/06/02 12:06:28;;;;;;;;;;;;;;;41.49;20.72;96048.63;4957102;28;19958;-47
2023/06/02 12:08:58;;;;;;;;;;;;;;;40.84;20.70;96047.94;4954393;28;19965;-47
2023/06/02 12:11:26;;;;;;;;;;;;;;;40.39;20.28;96048.94;4965763;28;19958;-46
2023/06/02 12:13:57;;;;;;;;;;;;;;;39.87;21.14;96045.69;4958450;28;19992;-47
2023/06/02 12:16:26;;;;;;;;;;;;;;;41.69;19.34;96049.56;4968554;28;19969;-44
2023/06/02 12:18:55;;;;;;;;;;;;;;;40.92;21.05;96046.97;4961445;28;19953;-45
2023/06/02 12:21:25;;;;;;;;;;;;;;;40.66;21.66;96048.22;4963078;28;19949;-48
2023/06/02 12:23:53;;;;;;;;;;;;;;;40.63;21.05;96046.16;4960299;28;19976;-51
2023/06/02 12:26:23;;;;;;;;;;;;;;;39.76;21.30;96044.53;4972693;28;20588;-47
2023/06/02 12:28:52;;;;;;;;;;;;;;;39.02;22.62;96048.97;4962088;28;19981;-50
2023/06/02 12:31:20;;;;;;;;;;;;;;;39.10;21.43;96047.31;4968343;28;20363;-51
2023/06/02 12:33:48;;;;;;;;;;;;;;;38.98;22.77;96050.00;4960250;28;19980;-53
2023/06/02 12:36:16;;;;;;;;;;;;;;;39.53;22.53;96054.34;4955424;28;19972;-51
2023/06/02 12:38:44;;;;;;;;;;;;;;;40.28;20.69;96041.13;4961567;28;20437;-47
2023/06/02 12:41:12;;;;;;;;;;;;;;;40.91;18.95;96040.66;4962101;28;19965;-48
2023/06/02 12:43:42;;;;;;;;;;;;;;;41.71;19.22;96041.69;4967660;28;19962;-50
2023/06/02 12:46:11;;;;;;;;;;;;;;;40.97;20.05;96041.22;4956879;28;20000;-45
2023/06/02 12:48:40;;;;;;;;;;;;;;;42.17;19.19;96042.06;4963323;28;19960;-47
2023/06/02 12:51:08;;;;;;;;;;;;;;;41.64;19.49;96038.72;4963317;28;19957;-47
2023/06/02 12:53:37;;;;;;;;;;;;;;;41.29;20.38;96033.81;4952945;28;19962;-47
2023/06/02 12:56:05;;;;;;;;;;;;;;;41.97;19.16;96041.19;4960456;28;19962;-47
2023/06/02 12:58:34;;;;;;;;;;;;;;;41.36;20.84;96041.53;4957016;28;19977;-51